Columbus, Kansas
Current Conditions -  °F | °C
As of 1:25 PM on Monday 22 Dec 2014 (Local Time) from KJLN Reporting Station
Haze Haze  
Wind Chill: 45°   Ceiling: 700
Heat Index: 49°   Visibility: 3mi
Dew Point: 48°   Wind: 10mph
Humidity: 97%   Direction: 210°SSW
Pressure: 29.5"   Gusts: NA
Location:  37.17°N, 94.84°W
Report Text: KJLN 221925Z 21009KT 3SM BR OVC007 09/09 A2950 RMK AO2 RAE22 CIG 005V010 P0000 T00940089
Loading
Personal Weather Stations






























Interactive Weather Map New forecast layout! Learn more

10-Day Weather Forecast

Advertisements
Track Severe Weather on mobile